sensor_id;sensor_type;location;lat;lon;timestamp;pressure;altitude;pressure_sealevel;temperature;humidity
22257;BME280;11297;42.686;23.374;2022-12-18T00:01:14;95737.47;;;8.79;77.61
22257;BME280;11297;42.686;23.374;2022-12-18T00:03:40;95732.66;;;8.68;77.59
22257;BME280;11297;42.686;23.374;2022-12-18T00:06:05;95735.97;;;8.73;77.45
22257;BME280;11297;42.686;23.374;2022-12-18T00:08:31;95741.19;;;8.68;77.53
22257;BME280;11297;42.686;23.374;2022-12-18T00:11:03;95746.63;;;8.67;78.18
22257;BME280;11297;42.686;23.374;2022-12-18T00:13:29;95736.88;;;8.54;78.00
22257;BME280;11297;42.686;23.374;2022-12-18T00:15:54;95737.94;;;8.53;77.58
22257;BME280;11297;42.686;23.374;2022-12-18T00:18:19;95744.97;;;8.43;77.58
22257;BME280;11297;42.686;23.374;2022-12-18T00:20:45;95743.16;;;8.43;78.16
22257;BME280;11297;42.686;23.374;2022-12-18T00:23:10;95749.63;;;8.41;77.90
22257;BME280;11297;42.686;23.374;2022-12-18T00:25:36;95758.97;;;8.42;77.36
22257;BME280;11297;42.686;23.374;2022-12-18T00:28:02;95756.91;;;8.39;77.92
22257;BME280;11297;42.686;23.374;2022-12-18T00:30:28;95757.94;;;8.38;77.49
22257;BME280;11297;42.686;23.374;2022-12-18T00:32:53;95755.34;;;8.38;77.54
22257;BME280;11297;42.686;23.374;2022-12-18T00:35:19;95753.34;;;8.20;78.20
22257;BME280;11297;42.686;23.374;2022-12-18T00:37:44;95774.81;;;8.25;78.07
22257;BME280;11297;42.686;23.374;2022-12-18T00:40:10;95767.09;;;8.20;78.18
22257;BME280;11297;42.686;23.374;2022-12-18T00:42:35;95773.03;;;8.21;78.06
22257;BME280;11297;42.686;23.374;2022-12-18T00:45:19;95764.50;;;8.15;77.53
22257;BME280;11297;42.686;23.374;2022-12-18T00:47:45;95776.41;;;8.07;78.14
22257;BME280;11297;42.686;23.374;2022-12-18T00:50:10;95770.75;;;8.00;78.49
22257;BME280;11297;42.686;23.374;2022-12-18T00:52:36;95781.63;;;8.11;78.05
22257;BME280;11297;42.686;23.374;2022-12-18T00:55:01;95780.56;;;8.07;77.72
22257;BME280;11297;42.686;23.374;2022-12-18T00:57:26;95780.56;;;7.98;77.76
22257;BME280;11297;42.686;23.374;2022-12-18T00:59:52;95773.38;;;7.90;77.78
22257;BME280;11297;42.686;23.374;2022-12-18T01:02:17;95776.47;;;7.87;78.06
22257;BME280;11297;42.686;23.374;2022-12-18T01:04:43;95780.34;;;7.84;77.88
22257;BME280;11297;42.686;23.374;2022-12-18T01:07:08;95786.81;;;7.87;78.13
22257;BME280;11297;42.686;23.374;2022-12-18T01:09:33;95785.53;;;7.89;77.81
22257;BME280;11297;42.686;23.374;2022-12-18T01:11:59;95793.03;;;7.81;77.84
22257;BME280;11297;42.686;23.374;2022-12-18T01:14:25;95797.69;;;7.84;77.62
22257;BME280;11297;42.686;23.374;2022-12-18T01:16:50;95797.72;;;7.79;77.48
22257;BME280;11297;42.686;23.374;2022-12-18T01:19:15;95807.03;;;7.70;78.00
22257;BME280;11297;42.686;23.374;2022-12-18T01:21:41;95808.56;;;7.71;77.95
22257;BME280;11297;42.686;23.374;2022-12-18T01:24:06;95804.72;;;7.63;77.71
22257;BME280;11297;42.686;23.374;2022-12-18T01:26:32;95806.53;;;7.58;77.64
22257;BME280;11297;42.686;23.374;2022-12-18T01:28:57;95798.28;;;7.61;78.08
22257;BME280;11297;42.686;23.374;2022-12-18T01:31:26;95807.53;;;7.72;77.70
22257;BME280;11297;42.686;23.374;2022-12-18T01:33:52;95799.81;;;7.67;77.32
22257;BME280;11297;42.686;23.374;2022-12-18T01:38:47;95814.28;;;7.63;78.05
22257;BME280;11297;42.686;23.374;2022-12-18T01:41:15;95811.97;;;7.57;77.33
22257;BME280;11297;42.686;23.374;2022-12-18T01:43:51;95814.03;;;7.55;77.08
22257;BME280;11297;42.686;23.374;2022-12-18T01:46:18;95818.44;;;7.44;77.86
22257;BME280;11297;42.686;23.374;2022-12-18T01:48:47;95819.72;;;7.32;77.76
22257;BME280;11297;42.686;23.374;2022-12-18T01:51:13;95826.97;;;7.30;78.07
22257;BME280;11297;42.686;23.374;2022-12-18T01:53:40;95832.91;;;7.25;78.12
22257;BME280;11297;42.686;23.374;2022-12-18T01:56:07;95832.63;;;7.22;78.22
22257;BME280;11297;42.686;23.374;2022-12-18T02:01:14;95832.91;;;7.20;77.86
22257;BME280;11297;42.686;23.374;2022-12-18T02:03:41;95829.53;;;7.25;77.26
22257;BME280;11297;42.686;23.374;2022-12-18T02:06:16;95835.72;;;7.19;77.90
22257;BME280;11297;42.686;23.374;2022-12-18T02:11:39;95841.69;;;7.10;77.41
22257;BME280;11297;42.686;23.374;2022-12-18T02:20:22;95859.72;;;7.00;78.17
22257;BME280;11297;42.686;23.374;2022-12-18T02:22:54;95858.19;;;6.99;77.79
22257;BME280;11297;42.686;23.374;2022-12-18T02:25:32;95859.47;;;7.01;78.07
22257;BME280;11297;42.686;23.374;2022-12-18T02:28:06;95864.94;;;7.05;77.78
22257;BME280;11297;42.686;23.374;2022-12-18T02:30:36;95853.25;;;6.92;77.67
22257;BME280;11297;42.686;23.374;2022-12-18T02:33:04;95866.97;;;6.98;78.11
22257;BME280;11297;42.686;23.374;2022-12-18T02:35:32;95861.28;;;6.96;77.59
22257;BME280;11297;42.686;23.374;2022-12-18T02:37:58;95857.41;;;6.88;78.03
22257;BME280;11297;42.686;23.374;2022-12-18T02:40:26;95856.56;;;6.68;77.96
22257;BME280;11297;42.686;23.374;2022-12-18T02:42:53;95868.44;;;6.69;78.99
22257;BME280;11297;42.686;23.374;2022-12-18T02:45:18;95869.72;;;6.62;78.48
22257;BME280;11297;42.686;23.374;2022-12-18T02:47:46;95880.56;;;6.68;79.18
22257;BME280;11297;42.686;23.374;2022-12-18T02:56:05;95871.84;;;6.79;78.56
22257;BME280;11297;42.686;23.374;2022-12-18T02:58:58;95876.69;;;6.66;78.94
22257;BME280;11297;42.686;23.374;2022-12-18T03:04:29;95852.34;;;6.42;79.25
22257;BME280;11297;42.686;23.374;2022-12-18T03:06:57;95886.22;;;6.56;79.22
22257;BME280;11297;42.686;23.374;2022-12-18T03:09:36;95889.06;;;6.59;79.09
22257;BME280;11297;42.686;23.374;2022-12-18T03:12:31;95900.69;;;6.62;78.24
22257;BME280;11297;42.686;23.374;2022-12-18T03:15:18;95902.50;;;6.66;78.00
22257;BME280;11297;42.686;23.374;2022-12-18T03:17:50;95904.03;;;6.67;78.48
22257;BME280;11297;42.686;23.374;2022-12-18T03:20:19;95894.78;;;6.66;78.00
22257;BME280;11297;42.686;23.374;2022-12-18T03:22:51;95894.00;;;6.70;77.92
22257;BME280;11297;42.686;23.374;2022-12-18T03:25:18;95901.47;;;6.67;78.38
22257;BME280;11297;42.686;23.374;2022-12-18T03:27:47;95902.75;;;6.65;77.35
22257;BME280;11297;42.686;23.374;2022-12-18T03:30:14;95910.25;;;6.71;76.76
22257;BME280;11297;42.686;23.374;2022-12-18T03:35:29;95916.13;;;6.57;77.26
22257;BME280;11297;42.686;23.374;2022-12-18T03:37:55;95919.22;;;6.54;77.57
22257;BME280;11297;42.686;23.374;2022-12-18T03:40:27;95917.50;;;6.69;76.82
22257;BME280;11297;42.686;23.374;2022-12-18T03:43:05;95916.38;;;6.55;77.14
22257;BME280;11297;42.686;23.374;2022-12-18T03:45:35;95925.69;;;6.61;76.88
22257;BME280;11297;42.686;23.374;2022-12-18T03:48:11;95924.94;;;6.61;76.40
22257;BME280;11297;42.686;23.374;2022-12-18T03:50:46;95936.06;;;6.71;76.57
22257;BME280;11297;42.686;23.374;2022-12-18T03:56:00;95950.25;;;6.64;75.00
22257;BME280;11297;42.686;23.374;2022-12-18T03:58:28;95939.91;;;6.64;74.97
22257;BME280;11297;42.686;23.374;2022-12-18T04:00:56;95957.22;;;6.63;74.76
22257;BME280;11297;42.686;23.374;2022-12-18T04:03:24;95956.41;;;6.63;74.38
22257;BME280;11297;42.686;23.374;2022-12-18T04:05:54;95955.66;;;6.67;73.98
22257;BME280;11297;42.686;23.374;2022-12-18T04:08:21;95946.41;;;6.71;74.32
22257;BME280;11297;42.686;23.374;2022-12-18T04:10:47;95945.84;;;6.59;73.93
22257;BME280;11297;42.686;23.374;2022-12-18T04:13:21;95965.97;;;6.62;73.97
22257;BME280;11297;42.686;23.374;2022-12-18T04:15:47;95957.41;;;6.57;74.41
22257;BME280;11297;42.686;23.374;2022-12-18T04:18:12;95974.16;;;6.49;74.76
22257;BME280;11297;42.686;23.374;2022-12-18T04:20:38;95973.69;;;6.57;74.71
22257;BME280;11297;42.686;23.374;2022-12-18T04:23:03;95980.69;;;6.62;73.94
22257;BME280;11297;42.686;23.374;2022-12-18T04:25:28;95982.97;;;6.53;74.47
22257;BME280;11297;42.686;23.374;2022-12-18T04:27:54;95981.47;;;6.62;74.57
22257;BME280;11297;42.686;23.374;2022-12-18T04:30:19;95991.31;;;6.70;74.58
22257;BME280;11297;42.686;23.374;2022-12-18T04:32:44;95994.13;;;6.68;73.81
22257;BME280;11297;42.686;23.374;2022-12-18T04:35:10;95959.50;;;6.60;72.85
22257;BME280;11297;42.686;23.374;2022-12-18T04:37:37;95980.94;;;6.60;72.56
22257;BME280;11297;42.686;23.374;2022-12-18T04:40:02;95986.88;;;6.65;72.29
22257;BME280;11297;42.686;23.374;2022-12-18T04:42:27;95988.97;;;6.64;72.77
22257;BME280;11297;42.686;23.374;2022-12-18T04:44:53;95988.63;;;6.55;72.79
22257;BME280;11297;42.686;23.374;2022-12-18T04:47:18;96001.78;;;6.54;72.39
22257;BME280;11297;42.686;23.374;2022-12-18T04:49:44;95998.94;;;6.50;72.65
22257;BME280;11297;42.686;23.374;2022-12-18T04:52:09;96006.44;;;6.52;72.33
22257;BME280;11297;42.686;23.374;2022-12-18T04:54:34;96014.19;;;6.52;71.88
22257;BME280;11297;42.686;23.374;2022-12-18T04:57:00;95980.22;;;6.28;71.59
22257;BME280;11297;42.686;23.374;2022-12-18T04:59:25;96025.25;;;6.52;71.00
22257;BME280;11297;42.686;23.374;2022-12-18T05:01:50;96029.88;;;6.45;70.99
22257;BME280;11297;42.686;23.374;2022-12-18T05:04:16;96026.81;;;6.48;70.99
22257;BME280;11297;42.686;23.374;2022-12-18T05:06:41;96027.06;;;6.52;70.88
22257;BME280;11297;42.686;23.374;2022-12-18T05:09:07;96015.25;;;6.56;70.95
22257;BME280;11297;42.686;23.374;2022-12-18T05:11:32;96022.69;;;6.52;70.54
22257;BME280;11297;42.686;23.374;2022-12-18T05:13:57;96036.09;;;6.49;70.39
22257;BME280;11297;42.686;23.374;2022-12-18T05:16:23;96036.59;;;6.46;70.68
22257;BME280;11297;42.686;23.374;2022-12-18T05:18:48;96044.28;;;6.41;70.87
22257;BME280;11297;42.686;23.374;2022-12-18T05:21:14;96052.13;;;6.51;70.29
22257;BME280;11297;42.686;23.374;2022-12-18T05:23:39;96032.13;;;6.32;70.29
22257;BME280;11297;42.686;23.374;2022-12-18T05:26:06;96054.13;;;6.44;70.65
22257;BME280;11297;42.686;23.374;2022-12-18T05:28:34;96056.63;;;6.34;70.49
22257;BME280;11297;42.686;23.374;2022-12-18T05:31:01;96062.34;;;6.36;70.62
22257;BME280;11297;42.686;23.374;2022-12-18T05:33:30;96059.69;;;6.31;70.77
22257;BME280;11297;42.686;23.374;2022-12-18T05:35:58;96066.38;;;6.27;70.47
22257;BME280;11297;42.686;23.374;2022-12-18T05:38:25;96071.97;;;6.19;70.94
22257;BME280;11297;42.686;23.374;2022-12-18T05:40:51;96059.94;;;5.99;71.54
22257;BME280;11297;42.686;23.374;2022-12-18T05:43:18;96074.25;;;6.11;71.74
22257;BME280;11297;42.686;23.374;2022-12-18T05:45:44;96085.81;;;6.09;71.05
22257;BME280;11297;42.686;23.374;2022-12-18T05:48:09;96080.13;;;6.07;71.28
22257;BME280;11297;42.686;23.374;2022-12-18T05:50:35;96078.03;;;6.04;71.08
22257;BME280;11297;42.686;23.374;2022-12-18T05:53:02;96076.38;;;5.93;70.22
22257;BME280;11297;42.686;23.374;2022-12-18T05:55:28;96062.44;;;5.89;70.25
22257;BME280;11297;42.686;23.374;2022-12-18T05:57:53;96077.47;;;5.97;70.60
22257;BME280;11297;42.686;23.374;2022-12-18T06:00:19;96044.28;;;5.79;69.97
22257;BME280;11297;42.686;23.374;2022-12-18T06:02:47;96098.56;;;5.94;70.47
22257;BME280;11297;42.686;23.374;2022-12-18T06:05:12;96092.16;;;5.96;70.75
22257;BME280;11297;42.686;23.374;2022-12-18T06:07:38;96102.22;;;5.98;70.12
22257;BME280;11297;42.686;23.374;2022-12-18T06:10:04;96089.75;;;5.90;69.74
22257;BME280;11297;42.686;23.374;2022-12-18T06:12:29;96107.75;;;5.85;70.65
22257;BME280;11297;42.686;23.374;2022-12-18T06:14:54;96104.66;;;5.83;70.61
22257;BME280;11297;42.686;23.374;2022-12-18T06:17:20;96119.09;;;5.84;70.15
22257;BME280;11297;42.686;23.374;2022-12-18T06:19:45;96115.97;;;5.82;70.26
22257;BME280;11297;42.686;23.374;2022-12-18T06:22:10;96115.00;;;5.88;70.40
22257;BME280;11297;42.686;23.374;2022-12-18T06:24:36;96108.78;;;5.84;70.08
22257;BME280;11297;42.686;23.374;2022-12-18T06:27:01;96116.81;;;5.87;70.46
22257;BME280;11297;42.686;23.374;2022-12-18T06:29:27;96119.78;;;6.01;69.96
22257;BME280;11297;42.686;23.374;2022-12-18T06:31:54;96109.44;;;5.74;70.43
22257;BME280;11297;42.686;23.374;2022-12-18T06:34:19;96115.94;;;5.77;70.87
22257;BME280;11297;42.686;23.374;2022-12-18T06:36:44;96127.66;;;5.89;70.44
22257;BME280;11297;42.686;23.374;2022-12-18T06:39:10;96134.38;;;5.90;70.20
22257;BME280;11297;42.686;23.374;2022-12-18T06:41:35;96135.91;;;5.91;69.75
22257;BME280;11297;42.686;23.374;2022-12-18T06:44:00;96132.09;;;5.94;69.58
22257;BME280;11297;42.686;23.374;2022-12-18T06:46:26;96137.72;;;5.91;69.72
22257;BME280;11297;42.686;23.374;2022-12-18T06:48:52;96138.84;;;6.00;68.99
22257;BME280;11297;42.686;23.374;2022-12-18T06:51:23;96147.91;;;6.02;69.75
22257;BME280;11297;42.686;23.374;2022-12-18T06:53:49;96148.63;;;5.98;68.95
22257;BME280;11297;42.686;23.374;2022-12-18T06:56:15;96144.97;;;5.94;68.98
22257;BME280;11297;42.686;23.374;2022-12-18T06:58:40;96146.72;;;5.88;69.43
22257;BME280;11297;42.686;23.374;2022-12-18T07:01:08;96155.13;;;5.79;69.23
22257;BME280;11297;42.686;23.374;2022-12-18T07:03:34;96146.94;;;5.87;68.55
22257;BME280;11297;42.686;23.374;2022-12-18T07:06:00;96162.97;;;5.89;68.93
22257;BME280;11297;42.686;23.374;2022-12-18T07:08:25;96156.53;;;5.91;68.31
22257;BME280;11297;42.686;23.374;2022-12-18T07:10:51;96166.31;;;5.89;67.28
22257;BME280;11297;42.686;23.374;2022-12-18T07:13:17;96158.34;;;5.91;67.28
22257;BME280;11297;42.686;23.374;2022-12-18T07:15:43;96173.44;;;5.82;66.78
22257;BME280;11297;42.686;23.374;2022-12-18T07:18:08;96164.47;;;5.85;67.29
22257;BME280;11297;42.686;23.374;2022-12-18T07:20:33;96175.88;;;5.89;67.56
22257;BME280;11297;42.686;23.374;2022-12-18T07:23:02;96167.78;;;5.80;67.94
22257;BME280;11297;42.686;23.374;2022-12-18T07:25:27;96169.16;;;5.88;68.25
22257;BME280;11297;42.686;23.374;2022-12-18T07:27:54;96163.50;;;5.91;67.75
22257;BME280;11297;42.686;23.374;2022-12-18T07:30:19;96165.00;;;5.87;67.74
22257;BME280;11297;42.686;23.374;2022-12-18T07:32:44;96176.69;;;5.94;67.75
22257;BME280;11297;42.686;23.374;2022-12-18T07:35:10;96181.56;;;5.91;68.78
22257;BME280;11297;42.686;23.374;2022-12-18T07:37:35;96176.59;;;5.84;68.30
22257;BME280;11297;42.686;23.374;2022-12-18T07:40:01;96175.31;;;5.87;67.90
22257;BME280;11297;42.686;23.374;2022-12-18T07:42:26;96172.25;;;5.90;68.33
22257;BME280;11297;42.686;23.374;2022-12-18T07:45:00;96193.44;;;5.92;67.97
22257;BME280;11297;42.686;23.374;2022-12-18T07:47:27;96194.69;;;5.89;68.34
22257;BME280;11297;42.686;23.374;2022-12-18T07:49:52;96187.72;;;5.90;68.06
22257;BME280;11297;42.686;23.374;2022-12-18T07:52:18;96192.78;;;5.80;68.21
22257;BME280;11297;42.686;23.374;2022-12-18T07:54:44;96207.34;;;5.91;68.65
22257;BME280;11297;42.686;23.374;2022-12-18T07:57:10;96167.03;;;5.64;68.94
22257;BME280;11297;42.686;23.374;2022-12-18T07:59:36;96210.88;;;5.85;69.34
22257;BME280;11297;42.686;23.374;2022-12-18T08:02:02;96205.66;;;5.80;69.33
22257;BME280;11297;42.686;23.374;2022-12-18T08:04:28;96204.94;;;5.84;69.15
22257;BME280;11297;42.686;23.374;2022-12-18T08:06:53;96212.19;;;5.87;69.70
22257;BME280;11297;42.686;23.374;2022-12-18T08:09:19;96218.97;;;5.93;69.56
22257;BME280;11297;42.686;23.374;2022-12-18T08:11:44;96224.19;;;5.98;69.04
22257;BME280;11297;42.686;23.374;2022-12-18T08:14:10;96231.69;;;6.00;69.02
22257;BME280;11297;42.686;23.374;2022-12-18T08:16:35;96212.06;;;5.77;69.05
22257;BME280;11297;42.686;23.374;2022-12-18T08:19:01;96238.28;;;5.91;69.64
22257;BME280;11297;42.686;23.374;2022-12-18T08:21:28;96234.97;;;5.95;69.54
22257;BME280;11297;42.686;23.374;2022-12-18T08:23:56;96246.53;;;5.93;69.53
22257;BME280;11297;42.686;23.374;2022-12-18T08:26:22;96248.34;;;5.92;69.20
22257;BME280;11297;42.686;23.374;2022-12-18T08:28:50;96238.13;;;5.81;69.23
22257;BME280;11297;42.686;23.374;2022-12-18T08:31:15;96249.06;;;5.88;69.06
22257;BME280;11297;42.686;23.374;2022-12-18T08:33:41;96243.25;;;5.76;69.50
22257;BME280;11297;42.686;23.374;2022-12-18T08:36:08;96257.56;;;5.88;69.05
22257;BME280;11297;42.686;23.374;2022-12-18T08:38:34;96254.28;;;5.93;68.95
22257;BME280;11297;42.686;23.374;2022-12-18T08:43:25;96247.34;;;5.93;68.73
22257;BME280;11297;42.686;23.374;2022-12-18T08:46:09;96250.50;;;6.00;68.26
22257;BME280;11297;42.686;23.374;2022-12-18T08:48:35;96260.03;;;6.00;67.86
22257;BME280;11297;42.686;23.374;2022-12-18T08:51:01;96258.84;;;6.07;67.60
22257;BME280;11297;42.686;23.374;2022-12-18T08:53:26;96268.88;;;6.04;67.23
22257;BME280;11297;42.686;23.374;2022-12-18T08:55:52;96254.78;;;6.11;66.93
22257;BME280;11297;42.686;23.374;2022-12-18T08:58:18;96256.53;;;6.11;66.50
22257;BME280;11297;42.686;23.374;2022-12-18T09:00:44;96251.59;;;6.04;66.15
22257;BME280;11297;42.686;23.374;2022-12-18T09:03:13;96251.16;;;6.33;75.17
22257;BME280;11297;42.686;23.374;2022-12-18T09:05:39;96247.94;;;6.21;67.12
22257;BME280;11297;42.686;23.374;2022-12-18T09:08:04;96238.38;;;6.22;66.40
22257;BME280;11297;42.686;23.374;2022-12-18T09:10:30;96250.25;;;6.23;65.76
22257;BME280;11297;42.686;23.374;2022-12-18T09:12:55;96252.19;;;6.11;65.78
22257;BME280;11297;42.686;23.374;2022-12-18T09:15:21;96247.28;;;6.10;65.62
22257;BME280;11297;42.686;23.374;2022-12-18T09:17:47;96250.56;;;6.05;65.11
22257;BME280;11297;42.686;23.374;2022-12-18T09:20:13;96236.47;;;5.91;65.63
22257;BME280;11297;42.686;23.374;2022-12-18T09:22:38;96246.78;;;5.91;65.08
22257;BME280;11297;42.686;23.374;2022-12-18T09:25:04;96251.69;;;5.93;65.47
22257;BME280;11297;42.686;23.374;2022-12-18T09:27:33;96249.66;;;5.95;65.14
22257;BME280;11297;42.686;23.374;2022-12-18T09:29:58;96250.91;;;5.92;65.30
22257;BME280;11297;42.686;23.374;2022-12-18T09:32:24;96242.41;;;5.92;64.44
22257;BME280;11297;42.686;23.374;2022-12-18T09:34:49;96247.38;;;5.98;64.92
22257;BME280;11297;42.686;23.374;2022-12-18T09:37:14;96257.09;;;6.13;63.87
22257;BME280;11297;42.686;23.374;2022-12-18T09:39:40;96261.88;;;6.25;64.23
22257;BME280;11297;42.686;23.374;2022-12-18T09:42:05;96263.44;;;6.26;64.05
22257;BME280;11297;42.686;23.374;2022-12-18T09:44:44;96257.19;;;6.22;64.62
22257;BME280;11297;42.686;23.374;2022-12-18T09:49:50;96258.53;;;6.25;63.62
22257;BME280;11297;42.686;23.374;2022-12-18T09:52:23;96264.59;;;6.35;63.36
22257;BME280;11297;42.686;23.374;2022-12-18T09:54:58;96259.91;;;6.32;63.70
22257;BME280;11297;42.686;23.374;2022-12-18T09:57:25;96253.66;;;6.28;63.21
22257;BME280;11297;42.686;23.374;2022-12-18T09:59:58;96258.72;;;6.45;63.00
22257;BME280;11297;42.686;23.374;2022-12-18T10:02:26;96252.66;;;6.29;62.52
22257;BME280;11297;42.686;23.374;2022-12-18T10:10:51;96251.06;;;6.50;62.43
22257;BME280;11297;42.686;23.374;2022-12-18T10:13:31;96259.44;;;6.62;61.26
22257;BME280;11297;42.686;23.374;2022-12-18T10:16:19;96253.00;;;6.64;61.44
22257;BME280;11297;42.686;23.374;2022-12-18T10:19:00;96257.91;;;6.65;61.64
22257;BME280;11297;42.686;23.374;2022-12-18T10:21:43;96260.84;;;6.74;61.57
22257;BME280;11297;42.686;23.374;2022-12-18T10:26:52;96253.72;;;6.86;61.84
22257;BME280;11297;42.686;23.374;2022-12-18T10:29:19;96259.63;;;6.81;61.13
22257;BME280;11297;42.686;23.374;2022-12-18T10:31:44;96264.53;;;6.83;61.02
22257;BME280;11297;42.686;23.374;2022-12-18T10:34:11;96262.31;;;6.91;61.12
22257;BME280;11297;42.686;23.374;2022-12-18T10:36:40;96266.13;;;6.84;60.96
22257;BME280;11297;42.686;23.374;2022-12-18T10:39:20;96254.31;;;6.93;61.11
22257;BME280;11297;42.686;23.374;2022-12-18T10:41:50;96257.50;;;7.05;60.37
22257;BME280;11297;42.686;23.374;2022-12-18T10:44:22;96250.06;;;7.13;59.94
22257;BME280;11297;42.686;23.374;2022-12-18T10:46:50;96264.56;;;7.14;60.08
22257;BME280;11297;42.686;23.374;2022-12-18T10:49:23;96257.63;;;7.19;59.87
22257;BME280;11297;42.686;23.374;2022-12-18T10:51:49;96238.47;;;7.15;59.63
22257;BME280;11297;42.686;23.374;2022-12-18T10:54:16;96247.06;;;7.26;59.77
22257;BME280;11297;42.686;23.374;2022-12-18T10:56:42;96270.97;;;7.12;60.26
22257;BME280;11297;42.686;23.374;2022-12-18T10:59:16;96254.00;;;7.20;60.22
22257;BME280;11297;42.686;23.374;2022-12-18T11:01:57;96225.44;;;7.01;60.34
22257;BME280;11297;42.686;23.374;2022-12-18T11:04:25;96250.13;;;7.18;61.15
22257;BME280;11297;42.686;23.374;2022-12-18T11:11:56;96257.06;;;7.17;61.15
22257;BME280;11297;42.686;23.374;2022-12-18T11:14:42;96254.94;;;7.05;61.05
22257;BME280;11297;42.686;23.374;2022-12-18T11:17:19;96257.75;;;7.03;61.44
22257;BME280;11297;42.686;23.374;2022-12-18T11:19:52;96252.91;;;7.12;61.48
22257;BME280;11297;42.686;23.374;2022-12-18T11:22:32;96252.97;;;7.16;60.76
22257;BME280;11297;42.686;23.374;2022-12-18T11:25:24;96261.38;;;7.07;60.21
22257;BME280;11297;42.686;23.374;2022-12-18T11:27:56;96266.88;;;7.15;60.15
22257;BME280;11297;42.686;23.374;2022-12-18T11:30:35;96261.97;;;7.14;59.62
22257;BME280;11297;42.686;23.374;2022-12-18T11:33:19;96265.25;;;7.05;60.28
22257;BME280;11297;42.686;23.374;2022-12-18T11:35:50;96260.84;;;7.00;60.86
22257;BME280;11297;42.686;23.374;2022-12-18T11:38:23;96257.63;;;6.88;60.82
22257;BME280;11297;42.686;23.374;2022-12-18T11:46:16;96266.91;;;7.20;60.25
22257;BME280;11297;42.686;23.374;2022-12-18T11:51:36;96253.25;;;7.25;60.11
22257;BME280;11297;42.686;23.374;2022-12-18T11:54:14;96257.78;;;7.08;59.81
22257;BME280;11297;42.686;23.374;2022-12-18T11:56:55;96265.28;;;7.10;59.43
22257;BME280;11297;42.686;23.374;2022-12-18T12:15:17;96261.59;;;7.01;59.98
22257;BME280;11297;42.686;23.374;2022-12-18T12:20:23;96265.03;;;7.11;59.37
22257;BME280;11297;42.686;23.374;2022-12-18T12:23:00;96268.03;;;7.29;59.72
22257;BME280;11297;42.686;23.374;2022-12-18T12:25:56;96265.28;;;7.46;59.47
22257;BME280;11297;42.686;23.374;2022-12-18T12:28:49;96266.59;;;7.43;58.34
22257;BME280;11297;42.686;23.374;2022-12-18T12:31:40;96267.88;;;7.46;58.82
22257;BME280;11297;42.686;23.374;2022-12-18T12:34:19;96270.47;;;7.46;59.07
22257;BME280;11297;42.686;23.374;2022-12-18T12:39:22;96270.69;;;7.39;57.83
22257;BME280;11297;42.686;23.374;2022-12-18T12:41:49;96272.25;;;7.40;58.47
22257;BME280;11297;42.686;23.374;2022-12-18T12:44:39;96266.50;;;7.33;58.52
22257;BME280;11297;42.686;23.374;2022-12-18T12:47:14;96260.81;;;7.31;58.75
22257;BME280;11297;42.686;23.374;2022-12-18T12:49:45;96274.25;;;7.28;58.65
22257;BME280;11297;42.686;23.374;2022-12-18T12:52:20;96273.75;;;7.31;58.46
22257;BME280;11297;42.686;23.374;2022-12-18T12:54:48;96277.34;;;7.30;58.77
22257;BME280;11297;42.686;23.374;2022-12-18T12:57:34;96287.25;;;7.43;58.71
22257;BME280;11297;42.686;23.374;2022-12-18T13:00:16;96289.03;;;7.38;58.79
22257;BME280;11297;42.686;23.374;2022-12-18T13:05:26;96286.19;;;7.39;58.95
22257;BME280;11297;42.686;23.374;2022-12-18T13:08:13;96285.66;;;7.37;59.13
22257;BME280;11297;42.686;23.374;2022-12-18T13:10:47;96295.03;;;7.48;58.66
22257;BME280;11297;42.686;23.374;2022-12-18T13:13:16;96288.19;;;7.32;58.16
22257;BME280;11297;42.686;23.374;2022-12-18T13:16:02;96290.75;;;7.27;58.47
22257;BME280;11297;42.686;23.374;2022-12-18T13:18:28;96307.00;;;7.23;59.57
22257;BME280;11297;42.686;23.374;2022-12-18T13:25:45;96310.44;;;7.33;58.89
22257;BME280;11297;42.686;23.374;2022-12-18T13:30:56;96308.19;;;7.42;58.80
22257;BME280;11297;42.686;23.374;2022-12-18T13:43:26;96316.13;;;7.35;59.06
22257;BME280;11297;42.686;23.374;2022-12-18T13:49:16;96328.41;;;7.50;58.05
22257;BME280;11297;42.686;23.374;2022-12-18T13:51:55;96329.63;;;7.42;58.38
22257;BME280;11297;42.686;23.374;2022-12-18T13:56:47;96326.88;;;7.54;58.17
22257;BME280;11297;42.686;23.374;2022-12-18T13:59:26;96343.25;;;7.64;57.73
22257;BME280;11297;42.686;23.374;2022-12-18T14:01:53;96350.19;;;7.59;58.65
22257;BME280;11297;42.686;23.374;2022-12-18T14:04:29;96343.94;;;7.55;58.13
22257;BME280;11297;42.686;23.374;2022-12-18T14:07:24;96344.16;;;7.48;58.30
22257;BME280;11297;42.686;23.374;2022-12-18T14:09:52;96353.13;;;7.36;57.91
22257;BME280;11297;42.686;23.374;2022-12-18T14:12:21;96347.81;;;7.21;57.84
22257;BME280;11297;42.686;23.374;2022-12-18T14:17:50;96351.56;;;7.09;58.69
22257;BME280;11297;42.686;23.374;2022-12-18T14:20:17;96343.47;;;7.00;58.22
22257;BME280;11297;42.686;23.374;2022-12-18T14:22:47;96360.75;;;7.00;58.74
22257;BME280;11297;42.686;23.374;2022-12-18T14:28:02;96350.66;;;6.98;57.87
22257;BME280;11297;42.686;23.374;2022-12-18T14:30:40;96369.88;;;7.07;58.20
22257;BME280;11297;42.686;23.374;2022-12-18T14:38:38;96363.94;;;7.07;57.71
22257;BME280;11297;42.686;23.374;2022-12-18T14:41:12;96367.94;;;7.19;58.09
22257;BME280;11297;42.686;23.374;2022-12-18T14:43:39;96370.03;;;7.22;57.19
22257;BME280;11297;42.686;23.374;2022-12-18T14:46:25;96358.88;;;7.16;58.10
22257;BME280;11297;42.686;23.374;2022-12-18T14:48:51;96353.38;;;7.08;57.40
22257;BME280;11297;42.686;23.374;2022-12-18T14:51:19;96361.16;;;7.13;56.75
22257;BME280;11297;42.686;23.374;2022-12-18T14:54:05;96352.41;;;7.19;56.44
22257;BME280;11297;42.686;23.374;2022-12-18T14:56:36;96357.06;;;7.17;56.30
22257;BME280;11297;42.686;23.374;2022-12-18T14:59:13;96355.41;;;7.06;56.69
22257;BME280;11297;42.686;23.374;2022-12-18T15:02:18;96365.44;;;7.03;56.80
22257;BME280;11297;42.686;23.374;2022-12-18T15:04:42;96376.56;;;7.60;74.20